Time;durP1;ratioP1;P1;durP2;ratioP2;P2;SDS_P1;SDS_P2;PMS_P1;PMS_P2;Temp;Humidity;BMP_temperature;BMP_pressure;BME280_temperature;BME280_humidity;BME280_pressure;Samples;Min_cycle;Max_cycle;Signal;HPM_P1;HPM_P2
2023/06/06 00:02:06;;;;;;;13.67;10.30;;;19.50;99.70;;;;;;5116654;28;20196;-63
2023/06/06 00:04:35;;;;;;;16.70;9.87;;;19.50;99.70;;;;;;5116129;27;20199;-63
2023/06/06 00:07:08;;;;;;;25.63;11.17;;;19.50;99.70;;;;;;5112190;28;20200;-63
2023/06/06 00:09:36;;;;;;;23.40;11.00;;;19.50;99.70;;;;;;5113418;28;20290;-63
2023/06/06 00:12:04;;;;;;;13.13;10.07;;;19.50;99.80;;;;;;5115344;28;20210;-63
2023/06/06 00:14:32;;;;;;;21.43;11.53;;;19.60;99.80;;;;;;5116470;28;20214;-63
2023/06/06 00:17:00;;;;;;;23.33;12.13;;;19.60;99.80;;;;;;5119750;27;20732;-63
2023/06/06 00:19:28;;;;;;;23.50;11.63;;;19.60;99.80;;;;;;5119616;27;20220;-63
2023/06/06 00:21:55;;;;;;;16.90;11.13;;;19.60;99.70;;;;;;5119254;27;20199;-63
2023/06/06 00:24:22;;;;;;;26.43;11.63;;;19.60;99.70;;;;;;5118476;27;20607;-63
2023/06/06 00:26:49;;;;;;;18.83;12.37;;;19.60;99.70;;;;;;5118755;27;20277;-63
2023/06/06 00:29:16;;;;;;;17.10;11.93;;;19.60;99.70;;;;;;5115085;27;20230;-63
2023/06/06 00:31:43;;;;;;;24.43;13.27;;;19.60;99.70;;;;;;5116435;27;20287;-63
2023/06/06 00:34:10;;;;;;;22.13;11.80;;;19.50;99.70;;;;;;5108349;27;20303;-63
2023/06/06 00:36:37;;;;;;;14.70;10.50;;;19.60;99.70;;;;;;5118285;27;20207;-63
2023/06/06 00:39:04;;;;;;;15.63;11.23;;;19.50;99.80;;;;;;5124742;27;20247;-64
2023/06/06 00:41:31;;;;;;;12.80;10.73;;;19.50;99.80;;;;;;5118924;27;20212;-63
2023/06/06 00:43:59;;;;;;;17.77;10.70;;;19.50;99.90;;;;;;5119292;27;20841;-63
2023/06/06 00:46:26;;;;;;;21.83;10.17;;;19.50;99.90;;;;;;5119857;27;20550;-63
2023/06/06 00:48:55;;;;;;;16.40;11.40;;;19.50;99.90;;;;;;5117604;27;20239;-63
2023/06/06 00:51:23;;;;;;;14.70;10.13;;;19.50;99.90;;;;;;5118540;27;20231;-63
2023/06/06 00:53:51;;;;;;;18.03;10.40;;;19.50;99.90;;;;;;5122837;27;20209;-63
2023/06/06 00:56:19;;;;;;;22.47;11.33;;;19.50;99.90;;;;;;5114773;27;20207;-63
2023/06/06 00:58:47;;;;;;;18.40;10.27;;;19.50;99.90;;;;;;5117331;27;20275;-63
2023/06/06 01:01:16;;;;;;;17.90;10.07;;;19.50;99.90;;;;;;5118193;27;20196;-63
2023/06/06 01:03:44;;;;;;;25.87;11.73;;;19.60;99.90;;;;;;5119281;27;20530;-63
2023/06/06 01:06:12;;;;;;;13.87;10.60;;;19.60;99.90;;;;;;5111583;27;20207;-63
2023/06/06 01:08:39;;;;;;;18.87;11.10;;;19.60;99.90;;;;;;5121271;27;20612;-63
2023/06/06 01:11:15;;;;;;;26.20;11.63;;;19.60;99.90;;;;;;5118523;27;20537;-63
2023/06/06 01:13:47;;;;;;;19.53;11.03;;;19.60;99.90;;;;;;5117385;27;20196;-63
2023/06/06 01:16:18;;;;;;;22.27;11.63;;;19.70;99.90;;;;;;5119849;27;20196;-63
2023/06/06 01:18:48;;;;;;;18.03;11.20;;;19.70;99.90;;;;;;5115693;27;20264;-63
2023/06/06 01:21:16;;;;;;;24.20;12.80;;;19.70;99.90;;;;;;5117340;27;20191;-63
2023/06/06 01:23:43;;;;;;;18.97;12.73;;;19.70;99.90;;;;;;5118590;27;20203;-63
2023/06/06 01:26:12;;;;;;;19.40;11.33;;;19.70;99.90;;;;;;5119228;27;20196;-63
2023/06/06 01:28:39;;;;;;;23.80;12.13;;;19.70;99.90;;;;;;5113250;27;20192;-63
2023/06/06 01:31:13;;;;;;;16.17;12.27;;;19.70;99.90;;;;;;5121196;27;20210;-63
2023/06/06 01:33:56;;;;;;;27.10;12.80;;;19.70;99.90;;;;;;5116123;27;20214;-63
2023/06/06 01:36:33;;;;;;;22.57;13.10;;;19.70;99.90;;;;;;5112304;27;20543;-63
2023/06/06 01:39:05;;;;;;;20.80;13.53;;;19.70;99.90;;;;;;5121784;27;20194;-63
2023/06/06 01:41:35;;;;;;;20.07;12.97;;;19.70;99.90;;;;;;5117353;27;20275;-63
2023/06/06 01:44:06;;;;;;;27.03;14.07;;;19.70;99.90;;;;;;5117955;27;20214;-63
2023/06/06 01:46:35;;;;;;;18.83;13.17;;;19.70;99.90;;;;;;5117373;27;20595;-63
2023/06/06 01:49:02;;;;;;;19.20;13.03;;;19.70;99.90;;;;;;5116226;27;20239;-63
2023/06/06 01:51:30;;;;;;;26.17;14.00;;;19.70;99.90;;;;;;5115972;27;20208;-63
2023/06/06 01:53:58;;;;;;;24.90;13.43;;;19.70;99.90;;;;;;5119186;27;20693;-63
2023/06/06 01:56:27;;;;;;;24.23;13.93;;;19.60;99.90;;;;;;5115852;27;20196;-63
2023/06/06 01:58:54;;;;;;;32.13;14.10;;;19.60;99.90;;;;;;5111907;28;20716;-63
2023/06/06 02:01:23;;;;;;;24.30;13.07;;;19.60;99.90;;;;;;5114909;27;20215;-63
2023/06/06 02:03:50;;;;;;;21.23;13.07;;;19.60;99.90;;;;;;5107837;27;20479;-63
2023/06/06 02:06:19;;;;;;;23.63;15.10;;;19.60;99.90;;;;;;5115946;27;20211;-63
2023/06/06 02:08:49;;;;;;;23.07;14.83;;;19.60;99.90;;;;;;5114407;27;20242;-63
2023/06/06 02:11:17;;;;;;;30.27;15.47;;;19.60;99.90;;;;;;5112054;27;20209;-63
2023/06/06 02:13:44;;;;;;;27.63;15.20;;;19.60;99.90;;;;;;5121714;27;20225;-63
2023/06/06 02:16:11;;;;;;;32.57;15.87;;;19.60;99.90;;;;;;5105474;28;20536;-63
2023/06/06 02:18:38;;;;;;;28.50;16.13;;;19.60;99.90;;;;;;5113447;27;20538;-64
2023/06/06 02:21:05;;;;;;;24.87;16.87;;;19.60;99.90;;;;;;5118678;27;20220;-63
2023/06/06 02:23:32;;;;;;;34.43;17.60;;;19.60;99.90;;;;;;5114591;27;20197;-63
2023/06/06 02:26:00;;;;;;;29.43;18.30;;;19.60;99.90;;;;;;5113146;28;20198;-63
2023/06/06 02:28:28;;;;;;;23.33;17.90;;;19.60;99.90;;;;;;5120814;27;20253;-63
2023/06/06 02:30:55;;;;;;;25.87;17.37;;;19.60;99.90;;;;;;5110443;27;20202;-63
2023/06/06 02:33:23;;;;;;;25.50;19.73;;;19.60;99.90;;;;;;5112449;28;20285;-63
2023/06/06 02:35:50;;;;;;;25.70;18.10;;;19.60;99.90;;;;;;5114359;28;20294;-63
2023/06/06 02:38:18;;;;;;;31.07;18.90;;;19.60;99.90;;;;;;5113216;27;20670;-63
2023/06/06 02:40:45;;;;;;;26.53;18.90;;;19.50;99.90;;;;;;5113328;28;20212;-63
2023/06/06 02:43:12;;;;;;;24.37;19.73;;;19.50;99.90;;;;;;5107612;28;20290;-63
2023/06/06 02:45:39;;;;;;;26.73;19.27;;;19.50;99.90;;;;;;5114118;28;20212;-63
2023/06/06 02:48:06;;;;;;;24.17;18.23;;;19.50;99.90;;;;;;5111272;28;20208;-63
2023/06/06 02:50:34;;;;;;;25.43;18.17;;;19.50;99.90;;;;;;5112885;28;20204;-63
2023/06/06 02:53:01;;;;;;;24.97;16.07;;;19.40;99.90;;;;;;5111844;28;20298;-63
2023/06/06 02:55:29;;;;;;;29.07;18.40;;;19.40;99.90;;;;;;5113828;28;20261;-63
2023/06/06 02:57:57;;;;;;;30.00;17.30;;;19.40;99.90;;;;;;5109408;28;20199;-63
2023/06/06 03:00:24;;;;;;;25.93;16.20;;;19.40;99.90;;;;;;5113348;27;20335;-63
2023/06/06 03:02:51;;;;;;;24.43;16.57;;;19.40;99.90;;;;;;5109831;28;20232;-63
2023/06/06 03:05:19;;;;;;;21.97;15.53;;;19.40;99.90;;;;;;5111513;28;20206;-63
2023/06/06 03:07:47;;;;;;;29.87;16.80;;;19.40;99.90;;;;;;5111166;28;20204;-63
2023/06/06 03:10:14;;;;;;;22.20;16.40;;;19.40;99.90;;;;;;5112570;28;20698;-63
2023/06/06 03:12:46;;;;;;;18.43;16.40;;;19.40;99.90;;;;;;5111351;28;20216;-63
2023/06/06 03:15:16;;;;;;;22.13;16.97;;;19.40;99.90;;;;;;5110998;28;20208;-63
2023/06/06 03:17:48;;;;;;;20.10;16.03;;;19.40;99.90;;;;;;5110097;28;20212;-63
2023/06/06 03:20:17;;;;;;;26.00;16.63;;;19.40;99.90;;;;;;5112592;28;20219;-63
2023/06/06 03:22:53;;;;;;;22.17;16.37;;;19.40;99.90;;;;;;5109588;28;20611;-63
2023/06/06 03:25:21;;;;;;;17.13;14.33;;;19.40;99.90;;;;;;5110933;28;20208;-63
2023/06/06 03:27:48;;;;;;;17.37;13.30;;;19.40;99.90;;;;;;5108564;28;20247;-63
2023/06/06 03:30:17;;;;;;;16.87;13.37;;;19.40;99.90;;;;;;5111577;28;20636;-64
2023/06/06 03:32:45;;;;;;;19.00;13.63;;;19.40;99.90;;;;;;5111241;28;20215;-63
2023/06/06 03:35:16;;;;;;;22.40;13.93;;;19.30;99.90;;;;;;5110936;28;20211;-63
2023/06/06 03:37:44;;;;;;;20.17;13.43;;;19.30;99.90;;;;;;5110799;28;20554;-63
2023/06/06 03:40:12;;;;;;;17.83;12.03;;;19.30;99.90;;;;;;5109701;28;20219;-63
2023/06/06 03:42:40;;;;;;;15.87;13.07;;;19.30;99.90;;;;;;5112134;28;20199;-63
2023/06/06 03:45:08;;;;;;;20.03;14.23;;;19.30;99.90;;;;;;5111698;28;20664;-63
2023/06/06 03:47:36;;;;;;;19.63;14.33;;;19.30;99.90;;;;;;5113992;27;20523;-63
2023/06/06 03:50:03;;;;;;;17.87;13.57;;;19.30;99.90;;;;;;5117494;27;20231;-63
2023/06/06 03:52:30;;;;;;;20.17;14.90;;;19.30;99.90;;;;;;5117699;27;20241;-63
2023/06/06 03:54:58;;;;;;;18.27;13.33;;;19.30;99.90;;;;;;5115761;27;20544;-63
2023/06/06 03:57:26;;;;;;;18.27;14.30;;;19.30;99.90;;;;;;5118323;27;20210;-63
2023/06/06 03:59:53;;;;;;;19.73;14.57;;;19.30;99.90;;;;;;5116470;27;20212;-63
2023/06/06 04:02:20;;;;;;;15.10;13.23;;;19.30;99.90;;;;;;5112140;27;20223;-62
2023/06/06 04:04:52;;;;;;;23.20;14.10;;;19.40;99.90;;;;;;5111729;27;20200;-63
2023/06/06 04:07:19;;;;;;;21.73;14.67;;;19.40;99.90;;;;;;5116693;28;20642;-63
2023/06/06 04:09:46;;;;;;;19.90;14.60;;;19.40;99.90;;;;;;5112970;28;20208;-63
2023/06/06 04:12:13;;;;;;;17.23;13.57;;;19.40;99.90;;;;;;5114600;28;20212;-63
2023/06/06 04:14:41;;;;;;;15.53;13.80;;;19.50;99.90;;;;;;5115422;27;20215;-63
2023/06/06 04:17:09;;;;;;;20.07;13.97;;;19.50;99.90;;;;;;5114815;27;20215;-63
2023/06/06 04:19:36;;;;;;;17.07;13.83;;;19.60;99.90;;;;;;5130104;27;20203;-63
2023/06/06 04:22:05;;;;;;;20.47;14.77;;;19.60;99.90;;;;;;5114563;27;20214;-63
2023/06/06 04:24:32;;;;;;;26.80;16.23;;;19.60;99.90;;;;;;5099677;27;20537;-63
2023/06/06 04:27:03;;;;;;;24.47;17.50;;;19.70;99.90;;;;;;5114673;27;20605;-63
2023/06/06 04:29:36;;;;;;;22.50;18.53;;;19.70;99.90;;;;;;5115618;27;20199;-63
2023/06/06 04:32:04;;;;;;;24.23;19.37;;;19.80;99.90;;;;;;5098388;28;20228;-63
2023/06/06 04:34:33;;;;;;;25.47;19.30;;;19.80;99.90;;;;;;5114569;27;20630;-63
2023/06/06 04:37:04;;;;;;;22.20;17.73;;;19.90;99.90;;;;;;5115774;27;20283;-62
2023/06/06 04:39:38;;;;;;;23.13;18.23;;;19.90;99.90;;;;;;5113064;27;20206;-63
2023/06/06 04:42:07;;;;;;;24.90;18.30;;;19.90;99.90;;;;;;5114270;27;20213;-63
2023/06/06 04:44:41;;;;;;;22.20;19.53;;;20.00;99.90;;;;;;5116694;27;20204;-63
2023/06/06 04:47:10;;;;;;;22.47;18.93;;;20.00;99.90;;;;;;5109190;28;20225;-63
2023/06/06 04:49:40;;;;;;;22.27;18.33;;;20.10;99.90;;;;;;5114773;27;20232;-63
2023/06/06 04:52:12;;;;;;;20.47;18.27;;;20.10;99.90;;;;;;5110736;27;20227;-63
2023/06/06 04:54:40;;;;;;;20.00;17.43;;;20.20;99.90;;;;;;5113566;27;20261;-63
2023/06/06 04:57:09;;;;;;;22.77;19.07;;;20.20;99.90;;;;;;5113885;27;20541;-62
2023/06/06 04:59:37;;;;;;;21.07;18.77;;;20.20;99.90;;;;;;5114634;27;20286;-63
2023/06/06 05:02:06;;;;;;;25.67;19.43;;;20.30;99.90;;;;;;5116317;27;20195;-63
2023/06/06 05:04:33;;;;;;;21.97;19.50;;;20.30;99.90;;;;;;5116039;27;20207;-63
2023/06/06 05:07:00;;;;;;;25.63;18.60;;;20.30;99.90;;;;;;5116216;27;20538;-63
2023/06/06 05:09:27;;;;;;;21.83;17.13;;;20.30;99.80;;;;;;5115348;27;20208;-63
2023/06/06 05:11:54;;;;;;;23.07;17.40;;;20.40;99.80;;;;;;5117215;27;20199;-63
2023/06/06 05:14:25;;;;;;;21.40;19.17;;;20.40;99.70;;;;;;5115864;27;20635;-63
2023/06/06 05:16:53;;;;;;;20.93;17.40;;;20.30;99.70;;;;;;5115185;27;20206;-63
2023/06/06 05:19:21;;;;;;;20.10;17.20;;;20.30;99.70;;;;;;5117971;27;20215;-63
2023/06/06 05:21:48;;;;;;;22.80;17.43;;;20.30;99.70;;;;;;5115932;27;20563;-62
2023/06/06 05:24:15;;;;;;;25.90;18.83;;;20.30;99.60;;;;;;5117408;27;20226;-63
2023/06/06 05:26:42;;;;;;;24.70;17.30;;;20.30;99.50;;;;;;5114973;27;20196;-63
2023/06/06 05:29:10;;;;;;;21.83;16.87;;;20.30;99.50;;;;;;5114034;27;20196;-63
2023/06/06 05:31:37;;;;;;;24.63;16.97;;;20.30;99.40;;;;;;5119233;27;20196;-62
2023/06/06 05:34:04;;;;;;;19.50;17.10;;;20.30;99.30;;;;;;5116365;27;20642;-63
2023/06/06 05:36:31;;;;;;;22.53;16.03;;;20.30;99.30;;;;;;5115641;27;20188;-63
2023/06/06 05:39:00;;;;;;;21.63;17.57;;;20.20;99.30;;;;;;5113771;28;20282;-63
2023/06/06 05:41:27;;;;;;;23.63;18.13;;;20.20;99.30;;;;;;5114402;27;20227;-63
2023/06/06 05:43:54;;;;;;;19.90;16.97;;;20.20;99.30;;;;;;5116085;27;20206;-63
2023/06/06 05:46:21;;;;;;;20.70;17.63;;;20.20;99.40;;;;;;5116275;27;20310;-63
2023/06/06 05:48:48;;;;;;;21.17;16.70;;;20.30;99.50;;;;;;5116306;27;20610;-63
2023/06/06 05:51:15;;;;;;;20.83;17.23;;;20.30;99.50;;;;;;5116493;27;20644;-63
2023/06/06 05:53:46;;;;;;;20.53;15.60;;;20.20;99.80;;;;;;5115210;27;20214;-63
2023/06/06 05:56:13;;;;;;;17.20;15.40;;;20.30;99.50;;;;;;5115876;27;20271;-63
2023/06/06 05:58:41;;;;;;;17.00;14.67;;;20.30;99.50;;;;;;5112494;27;20528;-63
2023/06/06 06:01:08;;;;;;;15.10;13.50;;;20.40;99.50;;;;;;5115515;28;20306;-63
2023/06/06 06:03:38;;;;;;;21.07;14.83;;;20.40;99.30;;;;;;5116649;27;20689;-63
2023/06/06 06:06:08;;;;;;;19.67;14.50;;;20.40;99.20;;;;;;5114201;27;20218;-63
2023/06/06 06:08:36;;;;;;;18.80;14.13;;;20.40;99.10;;;;;;5116371;27;20658;-63
2023/06/06 06:11:06;;;;;;;18.10;13.80;;;20.40;99.10;;;;;;5116118;27;20193;-63
2023/06/06 06:13:33;;;;;;;17.53;15.70;;;20.50;99.00;;;;;;5114676;27;20208;-63
2023/06/06 06:16:00;;;;;;;17.00;14.73;;;20.50;99.00;;;;;;5114396;27;20199;-63
2023/06/06 06:18:27;;;;;;;14.73;13.20;;;20.50;98.90;;;;;;5115718;27;20228;-63
2023/06/06 06:20:54;;;;;;;15.07;13.50;;;20.50;98.90;;;;;;5115044;27;20573;-63
2023/06/06 06:23:21;;;;;;;13.83;12.30;;;20.60;98.90;;;;;;5116480;27;20197;-63
2023/06/06 06:25:49;;;;;;;14.83;12.70;;;20.60;98.80;;;;;;5115116;27;20575;-63
2023/06/06 06:28:24;;;;;;;15.50;13.20;;;20.70;98.70;;;;;;5116682;27;20254;-63
2023/06/06 06:30:51;;;;;;;14.03;12.17;;;20.80;98.60;;;;;;5113612;27;20615;-63
2023/06/06 06:33:22;;;;;;;13.57;12.17;;;20.90;98.50;;;;;;5111789;27;20204;-63
2023/06/06 06:35:49;;;;;;;12.73;11.43;;;21.00;98.50;;;;;;5113506;27;20672;-63
2023/06/06 06:38:16;;;;;;;11.30;10.20;;;21.20;98.70;;;;;;5112184;27;20270;-64
2023/06/06 06:40:43;;;;;;;12.47;9.30;;;21.40;98.70;;;;;;5115021;27;20217;-63
2023/06/06 06:43:10;;;;;;;11.47;9.77;;;21.50;98.50;;;;;;5112564;27;20189;-63
2023/06/06 06:45:47;;;;;;;11.57;10.37;;;21.70;98.30;;;;;;5112909;27;20200;-63
2023/06/06 06:48:14;;;;;;;14.77;9.87;;;21.90;98.10;;;;;;5114692;27;20228;-63
2023/06/06 06:50:41;;;;;;;8.40;7.43;;;21.90;97.80;;;;;;5112797;27;20532;-63
2023/06/06 06:53:10;;;;;;;6.60;6.00;;;22.00;97.30;;;;;;5115805;27;20254;-63
2023/06/06 06:55:38;;;;;;;4.47;3.97;;;22.10;97.00;;;;;;5113666;27;20200;-63
2023/06/06 06:58:08;;;;;;;3.70;3.40;;;22.20;96.70;;;;;;5116087;27;20211;-63
2023/06/06 07:00:35;;;;;;;8.13;4.57;;;22.20;96.50;;;;;;5114722;27;20638;-63
2023/06/06 07:03:03;;;;;;;5.73;5.10;;;22.30;96.20;;;;;;5113784;28;20440;-63
2023/06/06 07:05:31;;;;;;;5.77;4.90;;;22.30;95.80;;;;;;5115023;28;20196;-63
2023/06/06 07:08:00;;;;;;;5.73;5.20;;;22.40;95.60;;;;;;5113826;28;20200;-63
2023/06/06 07:10:31;;;;;;;4.30;3.90;;;22.50;95.50;;;;;;5114790;27;20250;-63
2023/06/06 07:12:59;;;;;;;4.77;4.20;;;22.50;95.00;;;;;;5118238;27;20279;-63
2023/06/06 07:15:28;;;;;;;4.73;3.97;;;22.60;94.70;;;;;;5109016;28;20289;-63
2023/06/06 07:17:55;;;;;;;5.50;4.30;;;22.60;94.30;;;;;;5112713;28;20203;-63
2023/06/06 07:20:23;;;;;;;3.93;3.53;;;22.60;94.30;;;;;;5112303;28;20197;-63
2023/06/06 07:22:56;;;;;;;4.80;4.30;;;22.60;94.40;;;;;;5116345;28;20260;-63
2023/06/06 07:25:23;;;;;;;7.83;4.57;;;22.60;94.40;;;;;;5113686;28;20282;-63
2023/06/06 07:27:50;;;;;;;7.83;4.90;;;22.50;94.30;;;;;;5116006;28;20199;-63
2023/06/06 07:30:17;;;;;;;5.50;4.13;;;22.40;94.10;;;;;;5113023;28;20309;-63
2023/06/06 07:32:46;;;;;;;4.87;4.47;;;22.40;94.10;;;;;;5115381;28;20203;-63
2023/06/06 07:35:16;;;;;;;5.77;5.27;;;22.30;94.00;;;;;;5115389;28;20199;-63
2023/06/06 07:37:44;;;;;;;9.47;8.53;;;22.30;94.30;;;;;;5115179;28;20207;-63
2023/06/06 07:40:11;;;;;;;11.57;10.20;;;22.30;94.70;;;;;;5114687;28;20585;-67
2023/06/06 07:42:40;;;;;;;9.63;8.60;;;22.30;94.50;;;;;;5114638;28;20685;-63
2023/06/06 07:45:08;;;;;;;9.50;8.07;;;22.40;94.50;;;;;;5113891;28;20197;-63
2023/06/06 07:47:35;;;;;;;8.77;7.17;;;22.40;94.10;;;;;;5114522;28;20199;-63
2023/06/06 07:50:03;;;;;;;6.27;5.50;;;22.50;94.20;;;;;;5115695;28;20289;-63
2023/06/06 07:52:33;;;;;;;5.33;4.90;;;22.70;94.40;;;;;;5115270;28;20196;-63
2023/06/06 07:55:01;;;;;;;6.70;5.53;;;22.80;94.30;;;;;;5115065;28;20200;-63
2023/06/06 07:57:30;;;;;;;11.50;10.30;;;23.00;94.10;;;;;;5115182;28;20197;-63
2023/06/06 07:59:58;;;;;;;10.73;9.73;;;23.10;93.70;;;;;;5115286;28;20239;-63
2023/06/06 08:02:25;;;;;;;14.30;12.87;;;23.10;93.60;;;;;;5113752;28;20221;-63
2023/06/06 08:04:53;;;;;;;12.70;11.47;;;23.20;93.30;;;;;;5115090;28;20592;-63
2023/06/06 08:07:20;;;;;;;16.43;14.93;;;23.30;93.00;;;;;;5115246;28;20188;-63
2023/06/06 08:09:47;;;;;;;19.67;17.67;;;23.40;92.40;;;;;;5114731;28;20196;-63
2023/06/06 08:12:14;;;;;;;21.73;19.43;;;23.50;92.20;;;;;;5114186;28;20254;-63
2023/06/06 08:14:41;;;;;;;22.33;20.13;;;23.60;92.20;;;;;;5112292;28;20192;-63
2023/06/06 08:17:09;;;;;;;22.23;20.03;;;23.70;92.20;;;;;;5113930;28;20205;-64
2023/06/06 08:19:36;;;;;;;23.57;21.30;;;23.80;92.30;;;;;;5115729;28;20269;-63
2023/06/06 08:22:04;;;;;;;23.70;21.33;;;23.90;92.40;;;;;;5112082;28;20303;-63
2023/06/06 08:24:31;;;;;;;20.70;18.60;;;24.00;92.30;;;;;;5115565;28;20275;-63
2023/06/06 08:26:58;;;;;;;20.33;18.43;;;24.10;92.00;;;;;;5114027;28;20193;-63
2023/06/06 08:29:25;;;;;;;19.10;17.30;;;24.10;91.30;;;;;;5114607;28;20254;-63
2023/06/06 08:31:53;;;;;;;22.53;20.10;;;24.20;90.80;;;;;;5114926;28;20644;-63
2023/06/06 08:34:22;;;;;;;19.60;17.80;;;24.10;90.50;;;;;;5116240;27;20236;-63
2023/06/06 08:36:50;;;;;;;21.90;19.70;;;24.00;90.60;;;;;;5116451;27;20280;-62
2023/06/06 08:39:20;;;;;;;23.30;21.30;;;23.90;90.90;;;;;;5117415;27;20236;-63
2023/06/06 08:41:55;;;;;;;24.23;21.93;;;23.90;90.70;;;;;;5116531;27;20682;-65
2023/06/06 08:44:23;;;;;;;23.17;21.03;;;23.80;90.80;;;;;;5117310;27;20539;-63
2023/06/06 08:46:57;;;;;;;24.80;22.40;;;23.80;90.70;;;;;;5116382;27;20215;-63
2023/06/06 08:49:27;;;;;;;22.50;20.50;;;23.80;90.50;;;;;;5117169;27;20284;-63
2023/06/06 08:51:56;;;;;;;18.57;16.83;;;23.70;91.00;;;;;;5114905;28;20284;-62
2023/06/06 08:54:24;;;;;;;18.90;17.20;;;23.80;90.90;;;;;;5114327;28;20506;-64
2023/06/06 08:56:54;;;;;;;18.60;16.67;;;23.80;90.80;;;;;;5113031;28;20201;-62
2023/06/06 08:59:21;;;;;;;16.70;15.20;;;23.90;90.90;;;;;;5115544;28;20262;-63
2023/06/06 09:01:53;;;;;;;16.67;14.93;;;24.20;90.50;;;;;;5118930;28;20276;-63
2023/06/06 09:04:20;;;;;;;15.87;14.20;;;24.40;90.10;;;;;;5116863;28;20283;-62
2023/06/06 09:06:50;;;;;;;18.37;16.53;;;24.70;89.60;;;;;;5114930;28;20241;-63
2023/06/06 09:09:19;;;;;;;15.90;14.43;;;25.00;89.40;;;;;;5118167;28;20196;-62
2023/06/06 09:11:46;;;;;;;14.00;12.70;;;25.20;89.50;;;;;;5114839;28;20203;-63
2023/06/06 09:14:13;;;;;;;12.27;11.07;;;25.40;88.80;;;;;;5116087;28;20662;-62
2023/06/06 09:16:41;;;;;;;12.17;11.07;;;25.50;87.20;;;;;;5112722;28;20694;-63
2023/06/06 09:19:08;;;;;;;10.47;9.47;;;25.60;87.10;;;;;;5116804;28;20303;-63
2023/06/06 09:21:36;;;;;;;10.57;8.30;;;25.70;86.80;;;;;;5116942;28;20599;-62
2023/06/06 09:24:04;;;;;;;11.37;10.27;;;25.70;86.40;;;;;;5115403;28;20185;-62
2023/06/06 09:26:34;;;;;;;9.90;8.93;;;25.70;85.60;;;;;;5116932;28;20199;-62
2023/06/06 09:29:08;;;;;;;9.57;8.77;;;25.70;84.90;;;;;;5112105;28;20186;-62
2023/06/06 09:31:40;;;;;;;11.40;10.23;;;25.70;85.10;;;;;;5113132;28;20211;-64
2023/06/06 09:34:08;;;;;;;9.60;8.67;;;25.90;85.80;;;;;;5115124;28;20195;-62
2023/06/06 09:36:44;;;;;;;7.33;6.37;;;26.00;85.20;;;;;;5115166;28;20197;-61
2023/06/06 09:39:13;;;;;;;6.47;5.87;;;26.10;84.20;;;;;;5116652;28;20199;-62
2023/06/06 09:41:47;;;;;;;5.83;5.23;;;26.20;83.00;;;;;;5116941;28;20212;-62
2023/06/06 09:44:20;;;;;;;4.60;4.10;;;26.30;81.90;;;;;;5113713;28;20279;-62
2023/06/06 09:46:49;;;;;;;6.97;5.70;;;26.50;81.90;;;;;;5113605;28;20201;-62
2023/06/06 09:49:17;;;;;;;5.77;5.23;;;26.70;81.00;;;;;;5074546;27;1135348;-63
2023/06/06 09:51:45;;;;;;;12.00;5.50;;;26.70;80.10;;;;;;5115548;27;20272;-61
2023/06/06 09:54:12;;;;;;;6.10;5.10;;;26.90;79.70;;;;;;5116660;27;20207;-61
2023/06/06 09:56:44;;;;;;;5.20;4.70;;;27.10;79.80;;;;;;5115972;27;20218;-61
2023/06/06 09:59:12;;;;;;;4.00;3.53;;;27.20;79.40;;;;;;5116112;27;20196;-63
2023/06/06 10:01:42;;;;;;;5.27;4.83;;;27.20;77.40;;;;;;5116215;27;20244;-62
2023/06/06 10:04:10;;;;;;;5.40;4.90;;;27.10;74.70;;;;;;5118526;27;20200;-62
2023/06/06 10:06:39;;;;;;;4.87;4.47;;;27.10;76.00;;;;;;5115350;27;20693;-62
2023/06/06 10:09:06;;;;;;;8.50;4.37;;;27.10;77.10;;;;;;5114971;27;20559;-61
2023/06/06 10:11:35;;;;;;;4.67;4.27;;;27.30;77.50;;;;;;5113739;27;20314;-62
2023/06/06 10:14:04;;;;;;;4.17;3.77;;;27.50;77.10;;;;;;5115888;27;20193;-62
2023/06/06 10:16:34;;;;;;;4.70;4.30;;;27.50;76.90;;;;;;5116637;27;20196;-63
2023/06/06 10:19:03;;;;;;;4.17;3.77;;;27.60;77.40;;;;;;5115817;27;20599;-62
2023/06/06 10:21:31;;;;;;;4.93;4.13;;;27.70;76.80;;;;;;5120210;27;20583;-61
2023/06/06 10:23:58;;;;;;;3.70;3.40;;;27.80;76.30;;;;;;5117093;27;20224;-63
2023/06/06 10:26:29;;;;;;;4.50;3.10;;;27.80;75.10;;;;;;5116635;27;20220;-62
2023/06/06 10:29:09;;;;;;;4.03;3.70;;;27.70;74.30;;;;;;5117275;27;20219;-62
2023/06/06 10:31:47;;;;;;;7.43;3.60;;;27.40;72.80;;;;;;5116238;27;20581;-62
2023/06/06 10:34:21;;;;;;;8.27;3.87;;;27.20;74.30;;;;;;5112706;27;20253;-62
2023/06/06 10:36:48;;;;;;;4.83;4.43;;;27.20;75.60;;;;;;5112647;27;20215;-62
2023/06/06 10:39:19;;;;;;;4.57;4.27;;;27.30;75.90;;;;;;5112164;27;20619;-61
2023/06/06 10:41:53;;;;;;;5.63;5.10;;;27.20;75.80;;;;;;5114765;27;20228;-61
2023/06/06 10:44:26;;;;;;;7.30;5.40;;;27.20;75.80;;;;;;5116714;27;20230;-61
2023/06/06 10:47:21;;;;;;;6.70;5.43;;;27.00;76.50;;;;;;5115204;27;20215;-62
2023/06/06 10:50:07;;;;;;;5.50;3.97;;;26.90;77.70;;;;;;5111873;27;20281;-62
2023/06/06 10:52:53;;;;;;;6.73;4.20;;;26.90;77.30;;;;;;5115411;27;20312;-62
2023/06/06 10:55:23;;;;;;;3.80;3.50;;;27.20;77.30;;;;;;5113007;27;20196;-62
2023/06/06 10:57:53;;;;;;;5.13;3.33;;;27.60;74.10;;;;;;5116844;27;20203;-62
2023/06/06 11:00:26;;;;;;;5.47;3.40;;;27.90;72.70;;;;;;5114938;27;20208;-61
2023/06/06 11:03:00;;;;;;;4.60;4.30;;;28.20;72.60;;;;;;5115789;27;20222;-62
2023/06/06 11:05:28;;;;;;;5.73;5.13;;;28.40;71.30;;;;;;5113613;27;20192;-63
2023/06/06 11:07:57;;;;;;;6.37;5.77;;;28.30;71.70;;;;;;5112842;27;20192;-62
2023/06/06 11:10:24;;;;;;;5.90;5.40;;;28.00;72.00;;;;;;5114141;27;20207;-62
2023/06/06 11:12:53;;;;;;;6.63;5.80;;;27.60;73.80;;;;;;5112714;27;20506;-61
2023/06/06 11:15:29;;;;;;;6.27;5.77;;;27.20;74.10;;;;;;5116327;27;20234;-62
2023/06/06 11:18:02;;;;;;;6.83;5.77;;;26.80;74.60;;;;;;5114136;28;20576;-63
2023/06/06 11:20:41;;;;;;;5.83;5.33;;;26.50;76.00;;;;;;5114582;28;20205;-62
2023/06/06 11:23:11;;;;;;;6.43;5.83;;;26.30;76.90;;;;;;5116587;27;20316;-61
2023/06/06 11:25:38;;;;;;;7.20;6.13;;;26.00;77.10;;;;;;5113512;28;20507;-62
2023/06/06 11:28:05;;;;;;;5.50;4.90;;;25.90;77.70;;;;;;5119025;28;20260;-62
2023/06/06 11:30:34;;;;;;;4.43;4.03;;;25.90;78.30;;;;;;5113426;28;20649;-62
2023/06/06 11:33:08;;;;;;;4.97;4.37;;;25.90;76.70;;;;;;5113400;28;20211;-61
2023/06/06 11:35:38;;;;;;;4.97;4.10;;;26.00;77.90;;;;;;5119080;28;20601;-64
2023/06/06 11:38:06;;;;;;;4.70;3.90;;;26.30;78.00;;;;;;5115063;28;20279;-62
2023/06/06 11:40:33;;;;;;;4.20;3.80;;;26.50;76.40;;;;;;5114674;28;20199;-64
2023/06/06 11:43:02;;;;;;;4.47;4.07;;;26.80;73.30;;;;;;5116203;28;20220;-62
2023/06/06 11:45:31;;;;;;;2.97;2.77;;;26.90;74.00;;;;;;5114671;28;20220;-62
2023/06/06 11:47:58;;;;;;;4.50;3.73;;;27.20;74.30;;;;;;5112587;28;20261;-63
2023/06/06 11:50:44;;;;;;;4.53;4.13;;;27.50;73.40;;;;;;5114855;27;20211;-61
2023/06/06 11:53:11;;;;;;;3.93;3.63;;;27.80;72.50;;;;;;5113053;28;20257;-64
2023/06/06 11:55:38;;;;;;;3.50;3.20;;;27.90;71.80;;;;;;5116543;28;20253;-61
2023/06/06 11:58:05;;;;;;;4.20;3.80;;;28.20;72.20;;;;;;5116400;28;20203;-63
2023/06/06 12:00:33;;;;;;;3.90;3.60;;;28.20;70.30;;;;;;5113803;28;20200;-63
2023/06/06 12:03:01;;;;;;;6.90;3.77;;;28.00;70.50;;;;;;5112119;28;20256;-63
2023/06/06 12:05:28;;;;;;;6.50;3.83;;;27.90;71.60;;;;;;5116954;28;20659;-63
2023/06/06 12:07:59;;;;;;;4.30;3.90;;;27.90;72.70;;;;;;5114998;28;20189;-63
2023/06/06 12:10:31;;;;;;;3.60;3.30;;;28.00;72.60;;;;;;5118637;27;20261;-63
2023/06/06 12:12:59;;;;;;;3.83;3.50;;;28.20;72.60;;;;;;5120932;27;20239;-63
2023/06/06 12:15:48;;;;;;;3.13;2.93;;;28.30;70.60;;;;;;5119145;27;20646;-63
2023/06/06 12:18:15;;;;;;;4.37;3.97;;;28.40;68.80;;;;;;5117628;27;20200;-63
2023/06/06 12:20:44;;;;;;;5.27;3.50;;;28.50;68.60;;;;;;5118425;27;20193;-63
2023/06/06 12:23:11;;;;;;;5.63;3.43;;;28.50;67.60;;;;;;5118404;27;20227;-63
2023/06/06 12:25:38;;;;;;;3.60;3.30;;;28.50;66.90;;;;;;5118621;27;20241;-63
2023/06/06 12:28:10;;;;;;;5.30;3.60;;;28.40;66.80;;;;;;5118936;27;20534;-63
2023/06/06 12:30:38;;;;;;;4.07;3.77;;;28.20;67.70;;;;;;5117589;27;20494;-63
2023/06/06 12:33:06;;;;;;;6.00;3.47;;;28.10;69.80;;;;;;5122673;27;20278;-63
2023/06/06 12:35:34;;;;;;;4.77;3.10;;;28.10;69.20;;;;;;5118089;27;20250;-63
2023/06/06 12:38:01;;;;;;;7.67;2.73;;;28.20;69.60;;;;;;5115633;27;20516;-63
2023/06/06 12:40:36;;;;;;;3.57;3.13;;;28.30;69.90;;;;;;5116283;27;20207;-63
2023/06/06 12:43:06;;;;;;;4.20;3.30;;;28.40;69.40;;;;;;5118502;27;20211;-64